sensor_id;sensor_type;location;lat;lon;timestamp;temperature;humidity
19342;DHT22;9807;48.258;12.690;2022-10-31T00:01:21;13.90;99.90
19342;DHT22;9807;48.258;12.690;2022-10-31T00:03:51;13.80;99.90
19342;DHT22;9807;48.258;12.690;2022-10-31T00:06:20;13.70;99.90
19342;DHT22;9807;48.258;12.690;2022-10-31T00:08:53;13.70;99.90
19342;DHT22;9807;48.258;12.690;2022-10-31T00:11:19;13.80;99.90
19342;DHT22;9807;48.258;12.690;2022-10-31T00:13:48;13.80;99.90
19342;DHT22;9807;48.258;12.690;2022-10-31T00:16:15;13.90;99.90
19342;DHT22;9807;48.258;12.690;2022-10-31T00:18:41;13.90;99.90
19342;DHT22;9807;48.258;12.690;2022-10-31T00:21:07;14.00;99.90
19342;DHT22;9807;48.258;12.690;2022-10-31T00:23:32;14.20;99.90
19342;DHT22;9807;48.258;12.690;2022-10-31T00:26:02;14.10;99.90
19342;DHT22;9807;48.258;12.690;2022-10-31T00:28:29;14.10;99.90
19342;DHT22;9807;48.258;12.690;2022-10-31T00:31:05;14.10;99.90
19342;DHT22;9807;48.258;12.690;2022-10-31T00:33:34;14.20;99.90
19342;DHT22;9807;48.258;12.690;2022-10-31T00:36:00;14.20;99.90
19342;DHT22;9807;48.258;12.690;2022-10-31T00:38:25;14.20;99.90
19342;DHT22;9807;48.258;12.690;2022-10-31T00:40:51;14.20;99.90
19342;DHT22;9807;48.258;12.690;2022-10-31T00:43:17;14.10;99.90
19342;DHT22;9807;48.258;12.690;2022-10-31T00:45:46;13.80;99.90
19342;DHT22;9807;48.258;12.690;2022-10-31T00:48:11;13.40;99.90
19342;DHT22;9807;48.258;12.690;2022-10-31T00:50:38;13.40;99.90
19342;DHT22;9807;48.258;12.690;2022-10-31T00:53:03;13.50;99.90
19342;DHT22;9807;48.258;12.690;2022-10-31T00:55:29;13.60;99.90
19342;DHT22;9807;48.258;12.690;2022-10-31T00:57:55;13.70;99.90
19342;DHT22;9807;48.258;12.690;2022-10-31T01:00:31;13.90;99.90
19342;DHT22;9807;48.258;12.690;2022-10-31T01:02:56;13.90;99.90
19342;DHT22;9807;48.258;12.690;2022-10-31T01:05:22;14.00;99.90
19342;DHT22;9807;48.258;12.690;2022-10-31T01:07:48;14.00;99.90
19342;DHT22;9807;48.258;12.690;2022-10-31T01:10:17;14.00;99.90
19342;DHT22;9807;48.258;12.690;2022-10-31T01:12:48;14.10;99.90
19342;DHT22;9807;48.258;12.690;2022-10-31T01:15:20;13.90;99.90
19342;DHT22;9807;48.258;12.690;2022-10-31T01:17:47;13.80;99.90
19342;DHT22;9807;48.258;12.690;2022-10-31T01:20:17;13.90;99.90
19342;DHT22;9807;48.258;12.690;2022-10-31T01:22:45;13.90;99.90
19342;DHT22;9807;48.258;12.690;2022-10-31T01:25:13;14.00;99.90
19342;DHT22;9807;48.258;12.690;2022-10-31T01:27:39;14.00;99.90
19342;DHT22;9807;48.258;12.690;2022-10-31T01:30:07;14.10;99.90
19342;DHT22;9807;48.258;12.690;2022-10-31T01:32:33;14.10;99.90
19342;DHT22;9807;48.258;12.690;2022-10-31T01:34:59;14.10;99.90
19342;DHT22;9807;48.258;12.690;2022-10-31T01:37:24;14.10;99.90
19342;DHT22;9807;48.258;12.690;2022-10-31T01:39:50;14.10;99.90
19342;DHT22;9807;48.258;12.690;2022-10-31T01:42:19;14.10;99.90
19342;DHT22;9807;48.258;12.690;2022-10-31T01:44:58;14.10;99.90
19342;DHT22;9807;48.258;12.690;2022-10-31T01:47:43;14.20;99.90
19342;DHT22;9807;48.258;12.690;2022-10-31T01:50:14;14.10;99.90
19342;DHT22;9807;48.258;12.690;2022-10-31T01:52:49;14.10;99.90
19342;DHT22;9807;48.258;12.690;2022-10-31T01:55:37;14.00;99.90
19342;DHT22;9807;48.258;12.690;2022-10-31T01:58:12;13.90;99.90
19342;DHT22;9807;48.258;12.690;2022-10-31T02:00:39;13.90;99.90
19342;DHT22;9807;48.258;12.690;2022-10-31T02:03:06;14.00;99.90
19342;DHT22;9807;48.258;12.690;2022-10-31T02:05:32;14.00;99.90
19342;DHT22;9807;48.258;12.690;2022-10-31T02:10:34;14.10;99.90
19342;DHT22;9807;48.258;12.690;2022-10-31T02:13:04;14.20;99.90
19342;DHT22;9807;48.258;12.690;2022-10-31T02:15:31;14.10;99.90
19342;DHT22;9807;48.258;12.690;2022-10-31T02:17:57;14.10;99.90
19342;DHT22;9807;48.258;12.690;2022-10-31T02:23:31;14.10;99.90
19342;DHT22;9807;48.258;12.690;2022-10-31T02:26:22;14.10;99.90
19342;DHT22;9807;48.258;12.690;2022-10-31T02:29:16;14.10;99.90
19342;DHT22;9807;48.258;12.690;2022-10-31T02:32:00;14.10;99.90
19342;DHT22;9807;48.258;12.690;2022-10-31T02:44:55;14.10;99.90
19342;DHT22;9807;48.258;12.690;2022-10-31T02:47:27;14.00;99.90
19342;DHT22;9807;48.258;12.690;2022-10-31T02:50:01;14.10;99.90
19342;DHT22;9807;48.258;12.690;2022-10-31T02:52:32;14.00;99.90
19342;DHT22;9807;48.258;12.690;2022-10-31T02:54:58;14.00;99.90
19342;DHT22;9807;48.258;12.690;2022-10-31T02:57:32;14.00;99.90
19342;DHT22;9807;48.258;12.690;2022-10-31T03:00:03;13.90;99.90
19342;DHT22;9807;48.258;12.690;2022-10-31T03:05:16;13.90;99.90
19342;DHT22;9807;48.258;12.690;2022-10-31T03:10:46;13.30;99.90
19342;DHT22;9807;48.258;12.690;2022-10-31T03:15:50;12.80;99.90
19342;DHT22;9807;48.258;12.690;2022-10-31T03:18:39;12.70;99.90
19342;DHT22;9807;48.258;12.690;2022-10-31T03:23:58;12.40;99.90
19342;DHT22;9807;48.258;12.690;2022-10-31T03:26:25;12.30;99.90
19342;DHT22;9807;48.258;12.690;2022-10-31T03:29:02;12.10;99.90
19342;DHT22;9807;48.258;12.690;2022-10-31T03:31:32;12.00;99.90
19342;DHT22;9807;48.258;12.690;2022-10-31T03:34:00;11.80;99.90
19342;DHT22;9807;48.258;12.690;2022-10-31T03:36:35;11.80;99.90
19342;DHT22;9807;48.258;12.690;2022-10-31T03:39:08;11.70;99.90
19342;DHT22;9807;48.258;12.690;2022-10-31T03:41:40;11.30;99.90
19342;DHT22;9807;48.258;12.690;2022-10-31T03:44:16;11.10;99.90
19342;DHT22;9807;48.258;12.690;2022-10-31T03:46:43;11.00;99.90
19342;DHT22;9807;48.258;12.690;2022-10-31T03:49:10;11.10;99.90
19342;DHT22;9807;48.258;12.690;2022-10-31T03:51:47;11.10;99.90
19342;DHT22;9807;48.258;12.690;2022-10-31T03:54:44;11.30;99.90
19342;DHT22;9807;48.258;12.690;2022-10-31T03:59:55;12.00;99.90
19342;DHT22;9807;48.258;12.690;2022-10-31T04:02:27;12.30;99.90
19342;DHT22;9807;48.258;12.690;2022-10-31T04:04:57;12.60;99.90
19342;DHT22;9807;48.258;12.690;2022-10-31T04:07:31;12.70;99.90
19342;DHT22;9807;48.258;12.690;2022-10-31T04:10:04;12.60;99.90
19342;DHT22;9807;48.258;12.690;2022-10-31T04:12:32;12.30;99.90
19342;DHT22;9807;48.258;12.690;2022-10-31T04:15:00;12.00;99.90
19342;DHT22;9807;48.258;12.690;2022-10-31T04:17:34;12.00;99.90
19342;DHT22;9807;48.258;12.690;2022-10-31T04:20:02;12.20;99.90
19342;DHT22;9807;48.258;12.690;2022-10-31T04:22:31;12.30;99.90
19342;DHT22;9807;48.258;12.690;2022-10-31T04:24:57;12.30;99.90
19342;DHT22;9807;48.258;12.690;2022-10-31T04:27:22;12.30;99.90
19342;DHT22;9807;48.258;12.690;2022-10-31T04:29:48;12.00;99.90
19342;DHT22;9807;48.258;12.690;2022-10-31T04:32:14;11.70;99.90
19342;DHT22;9807;48.258;12.690;2022-10-31T04:34:39;11.60;99.90
19342;DHT22;9807;48.258;12.690;2022-10-31T04:37:08;11.40;99.90
19342;DHT22;9807;48.258;12.690;2022-10-31T04:39:34;11.30;99.90
19342;DHT22;9807;48.258;12.690;2022-10-31T04:41:59;11.20;99.90
19342;DHT22;9807;48.258;12.690;2022-10-31T04:44:25;11.40;99.90
19342;DHT22;9807;48.258;12.690;2022-10-31T04:46:51;11.40;99.90
19342;DHT22;9807;48.258;12.690;2022-10-31T04:49:16;11.40;99.90
19342;DHT22;9807;48.258;12.690;2022-10-31T04:51:42;11.40;99.90
19342;DHT22;9807;48.258;12.690;2022-10-31T04:54:08;11.30;99.90
19342;DHT22;9807;48.258;12.690;2022-10-31T04:56:33;11.30;99.90
19342;DHT22;9807;48.258;12.690;2022-10-31T04:58:59;11.40;99.90
19342;DHT22;9807;48.258;12.690;2022-10-31T05:01:24;11.70;99.90
19342;DHT22;9807;48.258;12.690;2022-10-31T05:03:53;12.00;99.90
19342;DHT22;9807;48.258;12.690;2022-10-31T05:06:19;12.30;99.90
19342;DHT22;9807;48.258;12.690;2022-10-31T05:08:44;12.50;99.90
19342;DHT22;9807;48.258;12.690;2022-10-31T05:11:10;12.60;99.90
19342;DHT22;9807;48.258;12.690;2022-10-31T05:13:36;12.70;99.90
19342;DHT22;9807;48.258;12.690;2022-10-31T05:16:02;12.80;99.90
19342;DHT22;9807;48.258;12.690;2022-10-31T05:18:28;13.00;99.90
19342;DHT22;9807;48.258;12.690;2022-10-31T05:20:54;13.10;99.90
19342;DHT22;9807;48.258;12.690;2022-10-31T05:23:19;13.10;99.90
19342;DHT22;9807;48.258;12.690;2022-10-31T05:25:45;12.90;99.90
19342;DHT22;9807;48.258;12.690;2022-10-31T05:28:11;12.60;99.90
19342;DHT22;9807;48.258;12.690;2022-10-31T05:30:37;12.50;99.90
19342;DHT22;9807;48.258;12.690;2022-10-31T05:33:05;12.60;99.90
19342;DHT22;9807;48.258;12.690;2022-10-31T05:35:32;12.60;99.90
19342;DHT22;9807;48.258;12.690;2022-10-31T05:37:58;12.70;99.90
19342;DHT22;9807;48.258;12.690;2022-10-31T05:40:25;12.90;99.90
19342;DHT22;9807;48.258;12.690;2022-10-31T05:42:52;13.10;99.90
19342;DHT22;9807;48.258;12.690;2022-10-31T05:45:19;13.20;99.90
19342;DHT22;9807;48.258;12.690;2022-10-31T05:47:58;13.20;99.90
19342;DHT22;9807;48.258;12.690;2022-10-31T05:50:25;13.30;99.90
19342;DHT22;9807;48.258;12.690;2022-10-31T05:53:00;13.40;99.90
19342;DHT22;9807;48.258;12.690;2022-10-31T05:55:27;13.30;99.90
19342;DHT22;9807;48.258;12.690;2022-10-31T05:57:56;13.40;99.90
19342;DHT22;9807;48.258;12.690;2022-10-31T06:00:23;13.40;99.90
19342;DHT22;9807;48.258;12.690;2022-10-31T06:02:49;13.40;99.90
19342;DHT22;9807;48.258;12.690;2022-10-31T06:05:29;13.40;99.90
19342;DHT22;9807;48.258;12.690;2022-10-31T06:07:55;13.40;99.90
19342;DHT22;9807;48.258;12.690;2022-10-31T06:10:21;13.40;99.90
19342;DHT22;9807;48.258;12.690;2022-10-31T06:12:47;13.40;99.90
19342;DHT22;9807;48.258;12.690;2022-10-31T06:15:19;13.40;99.90
19342;DHT22;9807;48.258;12.690;2022-10-31T06:17:46;13.40;99.90
19342;DHT22;9807;48.258;12.690;2022-10-31T06:20:12;13.40;99.90
19342;DHT22;9807;48.258;12.690;2022-10-31T06:22:38;13.40;99.90
19342;DHT22;9807;48.258;12.690;2022-10-31T06:25:03;13.40;99.90
19342;DHT22;9807;48.258;12.690;2022-10-31T06:27:29;13.40;99.90
19342;DHT22;9807;48.258;12.690;2022-10-31T06:29:55;13.30;99.90
19342;DHT22;9807;48.258;12.690;2022-10-31T06:32:21;13.30;99.90
19342;DHT22;9807;48.258;12.690;2022-10-31T06:34:47;13.30;99.90
19342;DHT22;9807;48.258;12.690;2022-10-31T06:37:18;13.20;99.90
19342;DHT22;9807;48.258;12.690;2022-10-31T06:39:44;13.20;99.90
19342;DHT22;9807;48.258;12.690;2022-10-31T06:42:10;13.20;99.90
19342;DHT22;9807;48.258;12.690;2022-10-31T06:44:35;13.20;99.90
19342;DHT22;9807;48.258;12.690;2022-10-31T06:47:01;13.30;99.90
19342;DHT22;9807;48.258;12.690;2022-10-31T06:49:27;13.40;99.90
19342;DHT22;9807;48.258;12.690;2022-10-31T06:51:52;13.40;99.90
19342;DHT22;9807;48.258;12.690;2022-10-31T06:54:18;13.40;99.90
19342;DHT22;9807;48.258;12.690;2022-10-31T06:56:47;13.30;99.90
19342;DHT22;9807;48.258;12.690;2022-10-31T06:59:14;13.00;99.90
19342;DHT22;9807;48.258;12.690;2022-10-31T07:01:40;12.80;99.90
19342;DHT22;9807;48.258;12.690;2022-10-31T07:04:10;12.80;99.90
19342;DHT22;9807;48.258;12.690;2022-10-31T07:06:36;13.00;99.90
19342;DHT22;9807;48.258;12.690;2022-10-31T07:09:05;13.10;99.90
19342;DHT22;9807;48.258;12.690;2022-10-31T07:11:30;13.30;99.90
19342;DHT22;9807;48.258;12.690;2022-10-31T07:13:56;13.10;99.90
19342;DHT22;9807;48.258;12.690;2022-10-31T07:16:24;12.80;99.90
19342;DHT22;9807;48.258;12.690;2022-10-31T07:18:53;12.40;99.90
19342;DHT22;9807;48.258;12.690;2022-10-31T07:21:19;12.00;99.90
19342;DHT22;9807;48.258;12.690;2022-10-31T07:23:48;12.20;99.90
19342;DHT22;9807;48.258;12.690;2022-10-31T07:26:14;12.50;99.90
19342;DHT22;9807;48.258;12.690;2022-10-31T07:28:49;12.60;99.90
19342;DHT22;9807;48.258;12.690;2022-10-31T07:31:18;12.60;99.90
19342;DHT22;9807;48.258;12.690;2022-10-31T07:33:44;12.50;99.90
19342;DHT22;9807;48.258;12.690;2022-10-31T07:36:10;12.60;99.90
19342;DHT22;9807;48.258;12.690;2022-10-31T07:38:38;12.90;99.90
19342;DHT22;9807;48.258;12.690;2022-10-31T07:41:04;13.10;99.90
19342;DHT22;9807;48.258;12.690;2022-10-31T07:43:30;13.30;99.90
19342;DHT22;9807;48.258;12.690;2022-10-31T07:45:56;13.40;99.90
19342;DHT22;9807;48.258;12.690;2022-10-31T07:48:21;13.50;99.90
19342;DHT22;9807;48.258;12.690;2022-10-31T07:50:47;13.60;99.90
19342;DHT22;9807;48.258;12.690;2022-10-31T07:53:14;13.70;99.90
19342;DHT22;9807;48.258;12.690;2022-10-31T07:55:40;13.80;99.90
19342;DHT22;9807;48.258;12.690;2022-10-31T07:58:16;13.80;99.90
19342;DHT22;9807;48.258;12.690;2022-10-31T08:00:44;13.90;99.90
19342;DHT22;9807;48.258;12.690;2022-10-31T08:03:18;13.90;99.90
19342;DHT22;9807;48.258;12.690;2022-10-31T08:05:44;14.00;99.90
19342;DHT22;9807;48.258;12.690;2022-10-31T08:08:12;13.90;99.90
19342;DHT22;9807;48.258;12.690;2022-10-31T08:10:38;14.00;99.90
19342;DHT22;9807;48.258;12.690;2022-10-31T08:13:08;14.00;99.90
19342;DHT22;9807;48.258;12.690;2022-10-31T08:15:34;13.80;99.90
19342;DHT22;9807;48.258;12.690;2022-10-31T08:18:03;13.70;99.90
19342;DHT22;9807;48.258;12.690;2022-10-31T08:20:28;13.70;99.90
19342;DHT22;9807;48.258;12.690;2022-10-31T08:22:59;13.30;99.90
19342;DHT22;9807;48.258;12.690;2022-10-31T08:25:26;13.40;99.90
19342;DHT22;9807;48.258;12.690;2022-10-31T08:27:53;13.60;99.90
19342;DHT22;9807;48.258;12.690;2022-10-31T08:30:24;13.80;99.90
19342;DHT22;9807;48.258;12.690;2022-10-31T08:33:11;14.00;99.90
19342;DHT22;9807;48.258;12.690;2022-10-31T08:35:37;14.10;99.90
19342;DHT22;9807;48.258;12.690;2022-10-31T08:38:06;14.20;99.90
19342;DHT22;9807;48.258;12.690;2022-10-31T08:40:33;14.40;99.90
19342;DHT22;9807;48.258;12.690;2022-10-31T08:43:14;14.40;99.90
19342;DHT22;9807;48.258;12.690;2022-10-31T08:45:41;14.40;99.90
19342;DHT22;9807;48.258;12.690;2022-10-31T08:48:11;14.50;99.90
19342;DHT22;9807;48.258;12.690;2022-10-31T08:50:37;14.50;99.90
19342;DHT22;9807;48.258;12.690;2022-10-31T08:53:14;14.50;99.90
19342;DHT22;9807;48.258;12.690;2022-10-31T08:55:42;14.60;99.90
19342;DHT22;9807;48.258;12.690;2022-10-31T08:58:13;14.60;99.90
19342;DHT22;9807;48.258;12.690;2022-10-31T09:00:42;14.60;99.90
19342;DHT22;9807;48.258;12.690;2022-10-31T09:03:19;14.70;99.90
19342;DHT22;9807;48.258;12.690;2022-10-31T09:05:55;14.80;99.90
19342;DHT22;9807;48.258;12.690;2022-10-31T09:08:21;14.80;99.90
19342;DHT22;9807;48.258;12.690;2022-10-31T09:10:47;14.80;99.90
19342;DHT22;9807;48.258;12.690;2022-10-31T09:13:15;14.90;99.90
19342;DHT22;9807;48.258;12.690;2022-10-31T09:15:44;15.00;99.90
19342;DHT22;9807;48.258;12.690;2022-10-31T09:18:11;15.00;99.90
19342;DHT22;9807;48.258;12.690;2022-10-31T09:20:38;15.00;99.90
19342;DHT22;9807;48.258;12.690;2022-10-31T09:23:16;15.10;99.90
19342;DHT22;9807;48.258;12.690;2022-10-31T09:25:43;15.10;99.90
19342;DHT22;9807;48.258;12.690;2022-10-31T09:28:14;15.10;99.90
19342;DHT22;9807;48.258;12.690;2022-10-31T09:30:40;15.10;99.90
19342;DHT22;9807;48.258;12.690;2022-10-31T09:33:12;15.10;99.90
19342;DHT22;9807;48.258;12.690;2022-10-31T09:35:40;14.90;99.90
19342;DHT22;9807;48.258;12.690;2022-10-31T09:38:10;14.90;99.90
19342;DHT22;9807;48.258;12.690;2022-10-31T09:46:36;15.10;99.90
19342;DHT22;9807;48.258;12.690;2022-10-31T09:51:45;15.30;99.90
19342;DHT22;9807;48.258;12.690;2022-10-31T09:56:58;15.30;99.90
19342;DHT22;9807;48.258;12.690;2022-10-31T10:02:04;15.50;99.90
19342;DHT22;9807;48.258;12.690;2022-10-31T10:04:38;15.50;99.90
19342;DHT22;9807;48.258;12.690;2022-10-31T10:09:53;15.10;99.90
19342;DHT22;9807;48.258;12.690;2022-10-31T10:15:36;15.30;99.90
19342;DHT22;9807;48.258;12.690;2022-10-31T10:20:56;15.50;99.90
19342;DHT22;9807;48.258;12.690;2022-10-31T10:26:20;15.60;99.90
19342;DHT22;9807;48.258;12.690;2022-10-31T10:28:57;15.70;99.90
19342;DHT22;9807;48.258;12.690;2022-10-31T10:31:34;15.70;99.90
19342;DHT22;9807;48.258;12.690;2022-10-31T10:34:17;15.70;99.90
19342;DHT22;9807;48.258;12.690;2022-10-31T10:36:56;15.80;99.90
19342;DHT22;9807;48.258;12.690;2022-10-31T10:41:58;15.80;99.90
19342;DHT22;9807;48.258;12.690;2022-10-31T10:44:48;15.90;99.90
19342;DHT22;9807;48.258;12.690;2022-10-31T10:47:44;15.90;99.90
19342;DHT22;9807;48.258;12.690;2022-10-31T10:50:27;16.00;99.90
19342;DHT22;9807;48.258;12.690;2022-10-31T10:55:41;16.20;99.90
19342;DHT22;9807;48.258;12.690;2022-10-31T10:58:16;16.20;99.90
19342;DHT22;9807;48.258;12.690;2022-10-31T11:00:44;16.20;99.90
19342;DHT22;9807;48.258;12.690;2022-10-31T11:03:14;16.30;99.90
19342;DHT22;9807;48.258;12.690;2022-10-31T11:05:54;16.30;99.90
19342;DHT22;9807;48.258;12.690;2022-10-31T11:08:33;16.30;99.90
19342;DHT22;9807;48.258;12.690;2022-10-31T11:11:22;16.40;99.90
19342;DHT22;9807;48.258;12.690;2022-10-31T11:13:55;16.40;99.90
19342;DHT22;9807;48.258;12.690;2022-10-31T11:18:52;16.60;99.90
19342;DHT22;9807;48.258;12.690;2022-10-31T11:21:21;16.60;99.90
19342;DHT22;9807;48.258;12.690;2022-10-31T11:23:49;16.60;99.90
19342;DHT22;9807;48.258;12.690;2022-10-31T11:26:20;16.70;99.90
19342;DHT22;9807;48.258;12.690;2022-10-31T11:28:59;16.80;99.90
19342;DHT22;9807;48.258;12.690;2022-10-31T11:31:29;16.80;99.90
19342;DHT22;9807;48.258;12.690;2022-10-31T11:34:05;16.80;99.90
19342;DHT22;9807;48.258;12.690;2022-10-31T11:36:39;16.90;99.90
19342;DHT22;9807;48.258;12.690;2022-10-31T11:39:20;16.90;99.90
19342;DHT22;9807;48.258;12.690;2022-10-31T11:41:47;17.00;99.90
19342;DHT22;9807;48.258;12.690;2022-10-31T11:44:22;17.00;99.90
19342;DHT22;9807;48.258;12.690;2022-10-31T11:46:52;17.00;99.90
19342;DHT22;9807;48.258;12.690;2022-10-31T11:49:23;17.10;99.90
19342;DHT22;9807;48.258;12.690;2022-10-31T11:51:53;17.10;99.90
19342;DHT22;9807;48.258;12.690;2022-10-31T11:54:33;17.10;99.90
19342;DHT22;9807;48.258;12.690;2022-10-31T11:57:00;17.10;99.90
19342;DHT22;9807;48.258;12.690;2022-10-31T11:59:31;17.20;99.90
19342;DHT22;9807;48.258;12.690;2022-10-31T12:01:59;17.30;99.90
19342;DHT22;9807;48.258;12.690;2022-10-31T12:04:41;17.30;99.90
19342;DHT22;9807;48.258;12.690;2022-10-31T12:07:09;17.30;99.90
19342;DHT22;9807;48.258;12.690;2022-10-31T12:09:35;17.40;99.90
19342;DHT22;9807;48.258;12.690;2022-10-31T12:22:56;17.50;99.90
19342;DHT22;9807;48.258;12.690;2022-10-31T12:25:36;17.50;99.90
19342;DHT22;9807;48.258;12.690;2022-10-31T12:33:50;17.60;99.90
19342;DHT22;9807;48.258;12.690;2022-10-31T12:45:05;17.60;99.90
19342;DHT22;9807;48.258;12.690;2022-10-31T12:47:55;17.70;99.90
19342;DHT22;9807;48.258;12.690;2022-10-31T12:56:06;17.60;99.90
19342;DHT22;9807;48.258;12.690;2022-10-31T12:58:46;17.60;99.90
19342;DHT22;9807;48.258;12.690;2022-10-31T13:01:45;17.70;99.90
19342;DHT22;9807;48.258;12.690;2022-10-31T13:04:38;17.70;99.90
19342;DHT22;9807;48.258;12.690;2022-10-31T13:12:39;17.70;99.90
19342;DHT22;9807;48.258;12.690;2022-10-31T13:15:20;17.80;99.90
19342;DHT22;9807;48.258;12.690;2022-10-31T13:17:59;17.80;99.90
19342;DHT22;9807;48.258;12.690;2022-10-31T13:20:32;17.80;99.90
19342;DHT22;9807;48.258;12.690;2022-10-31T13:23:22;17.80;99.90
19342;DHT22;9807;48.258;12.690;2022-10-31T13:25:53;17.80;99.90
19342;DHT22;9807;48.258;12.690;2022-10-31T13:28:43;17.80;99.90
19342;DHT22;9807;48.258;12.690;2022-10-31T13:31:10;17.90;99.90
19342;DHT22;9807;48.258;12.690;2022-10-31T13:33:41;17.80;99.90
19342;DHT22;9807;48.258;12.690;2022-10-31T13:36:29;17.80;99.90
19342;DHT22;9807;48.258;12.690;2022-10-31T13:39:12;17.90;99.90
19342;DHT22;9807;48.258;12.690;2022-10-31T13:42:14;17.90;99.90
19342;DHT22;9807;48.258;12.690;2022-10-31T13:44:36;17.90;99.90
19342;DHT22;9807;48.258;12.690;2022-10-31T13:47:26;18.00;99.90
19342;DHT22;9807;48.258;12.690;2022-10-31T13:50:18;18.00;99.90
19342;DHT22;9807;48.258;12.690;2022-10-31T13:52:45;18.00;99.90
19342;DHT22;9807;48.258;12.690;2022-10-31T13:58:04;18.00;99.90
19342;DHT22;9807;48.258;12.690;2022-10-31T14:00:34;18.00;99.90
19342;DHT22;9807;48.258;12.690;2022-10-31T14:03:01;18.00;99.90
19342;DHT22;9807;48.258;12.690;2022-10-31T14:05:31;18.00;99.90
19342;DHT22;9807;48.258;12.690;2022-10-31T14:08:01;18.00;99.90
19342;DHT22;9807;48.258;12.690;2022-10-31T14:13:23;18.10;99.90
19342;DHT22;9807;48.258;12.690;2022-10-31T14:18:40;18.00;99.90
19342;DHT22;9807;48.258;12.690;2022-10-31T14:23:40;17.90;99.90
19342;DHT22;9807;48.258;12.690;2022-10-31T14:28:46;17.90;99.90
19342;DHT22;9807;48.258;12.690;2022-10-31T14:34:55;17.90;99.90
19342;DHT22;9807;48.258;12.690;2022-10-31T14:37:58;17.90;99.90
19342;DHT22;9807;48.258;12.690;2022-10-31T14:46:15;17.80;99.90
19342;DHT22;9807;48.258;12.690;2022-10-31T14:49:05;17.80;99.90
19342;DHT22;9807;48.258;12.690;2022-10-31T14:51:39;17.80;99.90
19342;DHT22;9807;48.258;12.690;2022-10-31T14:54:10;17.80;99.90
19342;DHT22;9807;48.258;12.690;2022-10-31T14:57:06;17.70;99.90
19342;DHT22;9807;48.258;12.690;2022-10-31T14:59:36;17.80;99.90
19342;DHT22;9807;48.258;12.690;2022-10-31T15:02:16;17.80;99.90
19342;DHT22;9807;48.258;12.690;2022-10-31T15:04:44;17.70;99.90
19342;DHT22;9807;48.258;12.690;2022-10-31T15:07:18;17.70;99.90
19342;DHT22;9807;48.258;12.690;2022-10-31T15:09:45;17.70;99.90
19342;DHT22;9807;48.258;12.690;2022-10-31T15:12:31;17.60;99.90
19342;DHT22;9807;48.258;12.690;2022-10-31T15:14:57;17.60;99.90
19342;DHT22;9807;48.258;12.690;2022-10-31T15:17:26;17.60;99.90
19342;DHT22;9807;48.258;12.690;2022-10-31T15:19:53;17.60;99.90
19342;DHT22;9807;48.258;12.690;2022-10-31T15:22:22;17.60;99.90
19342;DHT22;9807;48.258;12.690;2022-10-31T15:24:49;17.60;99.90
19342;DHT22;9807;48.258;12.690;2022-10-31T15:27:21;17.60;99.90
19342;DHT22;9807;48.258;12.690;2022-10-31T15:29:53;17.60;99.90
19342;DHT22;9807;48.258;12.690;2022-10-31T15:32:27;17.50;99.90
19342;DHT22;9807;48.258;12.690;2022-10-31T15:34:54;17.50;99.90
19342;DHT22;9807;48.258;12.690;2022-10-31T15:37:23;17.40;99.90
19342;DHT22;9807;48.258;12.690;2022-10-31T15:39:50;17.40;99.90
19342;DHT22;9807;48.258;12.690;2022-10-31T15:45:17;17.30;99.90
19342;DHT22;9807;48.258;12.690;2022-10-31T15:48:00;17.20;99.90
19342;DHT22;9807;48.258;12.690;2022-10-31T15:53:03;17.20;99.90
19342;DHT22;9807;48.258;12.690;2022-10-31T15:55:31;17.10;99.90
19342;DHT22;9807;48.258;12.690;2022-10-31T15:58:09;17.10;99.90
19342;DHT22;9807;48.258;12.690;2022-10-31T16:00:37;17.10;99.90
19342;DHT22;9807;48.258;12.690;2022-10-31T16:03:28;17.10;99.90
19342;DHT22;9807;48.258;12.690;2022-10-31T16:05:59;17.00;99.90
19342;DHT22;9807;48.258;12.690;2022-10-31T16:08:34;17.00;99.90
19342;DHT22;9807;48.258;12.690;2022-10-31T16:13:37;16.90;99.90
19342;DHT22;9807;48.258;12.690;2022-10-31T16:16:13;16.90;99.90
19342;DHT22;9807;48.258;12.690;2022-10-31T16:18:40;16.80;99.90
19342;DHT22;9807;48.258;12.690;2022-10-31T16:21:08;16.80;99.90
19342;DHT22;9807;48.258;12.690;2022-10-31T16:23:36;16.80;99.90
19342;DHT22;9807;48.258;12.690;2022-10-31T16:26:07;16.80;99.90
19342;DHT22;9807;48.258;12.690;2022-10-31T16:28:34;16.70;99.90
19342;DHT22;9807;48.258;12.690;2022-10-31T16:31:13;16.70;99.90
19342;DHT22;9807;48.258;12.690;2022-10-31T16:33:39;16.70;99.90
19342;DHT22;9807;48.258;12.690;2022-10-31T16:36:32;16.70;99.90
19342;DHT22;9807;48.258;12.690;2022-10-31T16:38:58;16.70;99.90
19342;DHT22;9807;48.258;12.690;2022-10-31T16:41:24;16.60;99.90
19342;DHT22;9807;48.258;12.690;2022-10-31T16:43:51;16.50;99.90
19342;DHT22;9807;48.258;12.690;2022-10-31T16:46:26;16.40;99.90
19342;DHT22;9807;48.258;12.690;2022-10-31T16:48:52;16.40;99.90
19342;DHT22;9807;48.258;12.690;2022-10-31T16:51:21;16.40;99.90
19342;DHT22;9807;48.258;12.690;2022-10-31T16:53:47;16.40;99.90
19342;DHT22;9807;48.258;12.690;2022-10-31T16:56:18;16.40;99.90
19342;DHT22;9807;48.258;12.690;2022-10-31T16:58:45;16.40;99.90
19342;DHT22;9807;48.258;12.690;2022-10-31T17:01:14;16.40;99.90
19342;DHT22;9807;48.258;12.690;2022-10-31T17:03:40;16.30;99.90
19342;DHT22;9807;48.258;12.690;2022-10-31T17:06:05;16.30;99.90
19342;DHT22;9807;48.258;12.690;2022-10-31T17:08:31;16.30;99.90
19342;DHT22;9807;48.258;12.690;2022-10-31T17:10:58;16.20;99.90
19342;DHT22;9807;48.258;12.690;2022-10-31T17:13:29;16.30;99.90
19342;DHT22;9807;48.258;12.690;2022-10-31T17:15:58;16.20;99.90
19342;DHT22;9807;48.258;12.690;2022-10-31T17:18:24;16.20;99.90
19342;DHT22;9807;48.258;12.690;2022-10-31T17:20:50;16.20;99.90
19342;DHT22;9807;48.258;12.690;2022-10-31T17:23:20;16.20;99.90
19342;DHT22;9807;48.258;12.690;2022-10-31T17:25:46;16.10;99.90
19342;DHT22;9807;48.258;12.690;2022-10-31T17:28:13;16.20;99.90
19342;DHT22;9807;48.258;12.690;2022-10-31T17:30:40;16.10;99.90
19342;DHT22;9807;48.258;12.690;2022-10-31T17:33:13;16.10;99.90
19342;DHT22;9807;48.258;12.690;2022-10-31T17:35:40;16.10;99.90
19342;DHT22;9807;48.258;12.690;2022-10-31T17:38:05;16.00;99.90
19342;DHT22;9807;48.258;12.690;2022-10-31T17:40:31;16.10;99.90
19342;DHT22;9807;48.258;12.690;2022-10-31T17:42:57;16.10;99.90
19342;DHT22;9807;48.258;12.690;2022-10-31T17:45:24;16.00;99.90
19342;DHT22;9807;48.258;12.690;2022-10-31T17:47:51;16.00;99.90
19342;DHT22;9807;48.258;12.690;2022-10-31T17:50:20;16.00;99.90
19342;DHT22;9807;48.258;12.690;2022-10-31T17:52:46;16.00;99.90
19342;DHT22;9807;48.258;12.690;2022-10-31T17:55:12;16.00;99.90
19342;DHT22;9807;48.258;12.690;2022-10-31T17:57:41;16.00;99.90
19342;DHT22;9807;48.258;12.690;2022-10-31T18:00:12;15.90;99.90
19342;DHT22;9807;48.258;12.690;2022-10-31T18:02:38;15.90;99.90